Chronik & Geschichte

Boeing Stearman am Flugplatz Konstanz

Mit seiner 107-jährigen Geschichte ist Konstanz der älteste Verkehrslandeplatz Deutschlands. Lesen Sie unsere Festschrift zum 100-jährigen Platzjubiläum oder entdecken Sie die ausführliche Flugplatzchronik auf der Website der Initiative PRO Flugplatz Konstanz.

Live am Platz

Die Bilder unserer Webcams werden alle 5 Minuten aktualisiert.

Sonnenaufgang:

05:26 UTC / 06:26 Lokal

Sonnenuntergang:

17:36 UTC / 18:36 Lokal

METAR (19.03.2019 20:50 UTC):

EDNY 192050Z AUTO VRB02KT 9999 // NCD M00/M02 Q1030
VFR

TAF (19.03.2019 17:00 UTC):

TAF EDNY 191700Z 1918/2018 04004KT CAVOK BECMG 2009/2011 04010KT

Alle Angaben unverbindlich und ohne Gewähr. Zeiten genähert.

Für den Verkehrslandeplatz Konstanz werden keine offiziellen Wetterinformationen ausgegeben. Daher werden zur Orientierung Daten des nahegelegenen Flughafens Friedrichshafen dargestellt.

Flugwetterdaten zur Verfügung gestellt von wippich.aero.